createdAt,value
2022-08-27T00:00:51.863Z,11.50
2022-08-27T00:03:20.945Z,13.50
2022-08-27T00:05:49.607Z,12.00
2022-08-27T00:08:18.208Z,11.50
2022-08-27T00:10:46.833Z,13.00
2022-08-27T00:13:16.218Z,14.00
2022-08-27T00:15:45.208Z,12.00
2022-08-27T00:18:14.557Z,13.00
2022-08-27T00:20:43.851Z,13.50
2022-08-27T00:23:12.655Z,15.00
2022-08-27T00:25:41.306Z,13.00
2022-08-27T00:28:09.387Z,12.00
2022-08-27T00:30:38.259Z,11.00
2022-08-27T00:33:08.091Z,11.00
2022-08-27T00:35:38.185Z,12.00
2022-08-27T00:38:09.997Z,12.00
2022-08-27T00:40:39.654Z,12.00
2022-08-27T00:43:08.582Z,11.00
2022-08-27T00:45:44.281Z,13.33
2022-08-27T00:48:18.258Z,12.33
2022-08-27T00:50:54.224Z,11.00
2022-08-27T00:53:29.762Z,11.00
2022-08-27T00:56:18.234Z,11.00
2022-08-27T00:58:52.145Z,12.00
2022-08-27T01:01:31.919Z,13.33
2022-08-27T01:04:06.549Z,12.00
2022-08-27T01:06:38.431Z,13.00
2022-08-27T01:09:14.189Z,12.00
2022-08-27T01:11:44.349Z,10.00
2022-08-27T01:14:13.301Z,13.67
2022-08-27T01:16:52.433Z,12.00
2022-08-27T01:19:52.197Z,13.00
2022-08-27T01:22:54.004Z,13.00
2022-08-27T01:25:25.240Z,11.00
2022-08-27T01:27:58.877Z,14.00
2022-08-27T01:30:27.404Z,11.00
2022-08-27T01:32:55.814Z,11.00
2022-08-27T01:35:25.944Z,13.50
2022-08-27T01:37:57.075Z,12.00
2022-08-27T01:40:25.924Z,12.33
2022-08-27T01:42:57.767Z,13.00
2022-08-27T01:45:36.368Z,13.00
2022-08-27T01:48:10.561Z,14.00
2022-08-27T01:50:41.803Z,16.00
2022-08-27T01:53:24.934Z,13.00
2022-08-27T01:55:55.212Z,14.00
2022-08-27T01:58:31.154Z,13.50
2022-08-27T02:01:10.196Z,12.50
2022-08-27T02:03:39.359Z,12.50
2022-08-27T02:06:11.619Z,13.00
2022-08-27T02:08:41.331Z,14.00
2022-08-27T02:11:10.267Z,12.00
2022-08-27T02:13:39.394Z,12.00
2022-08-27T02:16:09.075Z,14.33
2022-08-27T02:18:38.713Z,14.00
2022-08-27T02:21:10.715Z,10.67
2022-08-27T02:23:39.825Z,13.00
2022-08-27T02:26:07.955Z,13.00
2022-08-27T02:28:36.178Z,11.00
2022-08-27T02:31:05.360Z,13.33
2022-08-27T02:33:33.621Z,10.00
2022-08-27T02:36:02.630Z,11.50
2022-08-27T02:38:31.890Z,13.00
2022-08-27T02:41:00.529Z,14.00
2022-08-27T02:43:29.238Z,12.00
2022-08-27T02:45:58.062Z,13.00
2022-08-27T02:48:26.866Z,13.50
2022-08-27T02:50:55.604Z,14.00
2022-08-27T02:53:24.323Z,12.50
2022-08-27T02:55:52.957Z,13.00
2022-08-27T02:58:21.610Z,13.00
2022-08-27T03:00:50.353Z,12.50
2022-08-27T03:03:18.950Z,13.67
2022-08-27T03:05:48.329Z,13.00
2022-08-27T03:08:17.933Z,13.00
2022-08-27T03:10:46.721Z,14.00
2022-08-27T03:13:15.282Z,13.67
2022-08-27T03:15:44.022Z,14.00
2022-08-27T03:18:19.898Z,16.00
2022-08-27T03:20:54.942Z,15.33
2022-08-27T03:23:30.089Z,14.67
2022-08-27T03:26:04.011Z,15.00
2022-08-27T03:28:36.401Z,14.00
2022-08-27T03:31:15.666Z,14.00
2022-08-27T03:33:44.389Z,14.00
2022-08-27T03:36:13.124Z,13.00
2022-08-27T03:38:41.748Z,15.00
2022-08-27T03:41:11.196Z,15.67
2022-08-27T03:43:38.921Z,14.00
2022-08-27T03:46:09.411Z,15.00
2022-08-27T03:48:39.371Z,14.00
2022-08-27T03:51:15.291Z,14.67
2022-08-27T03:53:47.213Z,14.00
2022-08-27T03:56:16.693Z,15.00
2022-08-27T03:58:45.279Z,13.33
2022-08-27T04:01:14.032Z,13.00
2022-08-27T04:03:42.739Z,15.50
2022-08-27T04:06:12.146Z,16.00
2022-08-27T04:08:40.687Z,15.00
2022-08-27T04:11:09.364Z,14.00
2022-08-27T04:13:38.022Z,15.00
2022-08-27T04:16:07.408Z,14.50
2022-08-27T04:18:36.174Z,16.00
2022-08-27T04:21:15.611Z,17.00
2022-08-27T04:23:44.861Z,13.00
2022-08-27T04:26:14.837Z,15.67
2022-08-27T04:28:48.500Z,17.00
2022-08-27T04:31:22.089Z,15.67
2022-08-27T04:33:51.499Z,16.00
2022-08-27T04:36:21.381Z,14.50
2022-08-27T04:38:51.083Z,15.67
2022-08-27T04:41:20.049Z,14.00
2022-08-27T04:44:08.063Z,15.00
2022-08-27T04:46:41.169Z,16.67
2022-08-27T04:49:18.805Z,15.00
2022-08-27T04:51:48.389Z,13.67
2022-08-27T04:54:17.907Z,15.00
2022-08-27T04:56:51.388Z,14.00
2022-08-27T04:59:20.200Z,14.50
2022-08-27T05:01:50.316Z,12.00
2022-08-27T05:04:19.631Z,14.50
2022-08-27T05:06:49.835Z,13.00
2022-08-27T05:09:19.569Z,12.67
2022-08-27T05:11:52.227Z,10.67
2022-08-27T05:14:22.323Z,13.67
2022-08-27T05:16:51.687Z,14.00
2022-08-27T05:19:21.950Z,25.67
2022-08-27T05:21:53.982Z,14.33
2022-08-27T05:24:23.356Z,12.67
2022-08-27T05:26:52.956Z,12.00
2022-08-27T05:29:22.400Z,11.33
2022-08-27T05:31:51.079Z,13.00
2022-08-27T05:34:22.072Z,15.00
2022-08-27T05:36:54.669Z,12.67
2022-08-27T05:39:23.748Z,12.00
2022-08-27T05:41:56.882Z,11.50
2022-08-27T05:44:41.797Z,13.33
2022-08-27T05:47:11.273Z,14.00
2022-08-27T05:49:40.820Z,12.67
2022-08-27T05:52:12.103Z,12.67
2022-08-27T05:54:40.984Z,11.00
2022-08-27T05:57:09.684Z,11.00
2022-08-27T05:59:56.718Z,13.00
2022-08-27T06:02:25.918Z,12.00
2022-08-27T06:04:54.680Z,11.00
2022-08-27T06:07:23.366Z,10.33
2022-08-27T06:09:51.979Z,11.00
2022-08-27T06:12:20.575Z,11.00
2022-08-27T06:14:57.722Z,11.00
2022-08-27T06:17:26.630Z,11.33
2022-08-27T06:19:55.296Z,10.00
2022-08-27T06:22:24.410Z,8.67
2022-08-27T06:24:53.036Z,10.33
2022-08-27T06:27:21.679Z,8.33
2022-08-27T06:29:50.182Z,8.00
2022-08-27T06:32:20.079Z,10.00
2022-08-27T06:34:48.817Z,8.33
2022-08-27T06:37:17.367Z,10.00
2022-08-27T06:39:46.123Z,8.67
2022-08-27T06:42:14.580Z,8.00
2022-08-27T06:44:43.235Z,9.00
2022-08-27T06:47:12.268Z,9.00
2022-08-27T06:49:43.437Z,9.00
2022-08-27T06:52:16.825Z,7.33
2022-08-27T06:54:45.939Z,7.00
2022-08-27T06:57:14.420Z,8.00
2022-08-27T06:59:44.691Z,8.67
2022-08-27T07:02:13.211Z,7.33
2022-08-27T07:04:41.782Z,9.33
2022-08-27T07:07:14.127Z,8.33
2022-08-27T07:09:57.049Z,9.00
2022-08-27T07:12:30.744Z,6.20
2022-08-27T07:14:59.406Z,6.67
2022-08-27T07:17:28.152Z,7.33
2022-08-27T07:19:56.874Z,8.00
2022-08-27T07:22:25.408Z,8.00
2022-08-27T07:24:53.988Z,8.67
2022-08-27T07:27:22.934Z,9.00
2022-08-27T07:29:51.489Z,8.00
2022-08-27T07:32:20.017Z,10.00
2022-08-27T07:34:48.662Z,10.00
2022-08-27T07:37:17.195Z,8.00
2022-08-27T07:39:45.635Z,7.33
2022-08-27T07:42:32.822Z,9.00
2022-08-27T07:45:01.284Z,9.67
2022-08-27T07:47:29.734Z,9.00
2022-08-27T07:49:59.611Z,10.00
2022-08-27T07:52:28.138Z,7.33
2022-08-27T07:54:56.629Z,4.00
2022-08-27T07:57:25.154Z,8.00
2022-08-27T07:59:54.013Z,8.67
2022-08-27T08:02:22.522Z,9.33
2022-08-27T08:04:51.765Z,9.00
2022-08-27T08:07:20.271Z,9.33
2022-08-27T08:09:48.822Z,8.33
2022-08-27T08:12:17.390Z,10.00
2022-08-27T08:14:58.043Z,8.33
2022-08-27T08:17:26.755Z,7.00
2022-08-27T08:20:18.563Z,7.33
2022-08-27T08:22:47.722Z,8.67
2022-08-27T08:25:17.530Z,8.00
2022-08-27T08:27:46.117Z,8.67
2022-08-27T08:30:15.532Z,7.33
2022-08-27T08:32:44.216Z,6.33
2022-08-27T08:35:13.452Z,9.00
2022-08-27T08:37:46.287Z,8.33
2022-08-27T08:40:45.247Z,9.00
2022-08-27T08:43:41.778Z,7.67
2022-08-27T08:46:34.355Z,7.00
2022-08-27T08:49:39.547Z,8.00
2022-08-27T08:52:57.651Z,7.67
2022-08-27T08:55:44.488Z,7.33
2022-08-27T08:58:43.650Z,7.33
2022-08-27T09:01:19.613Z,7.67
2022-08-27T09:04:05.700Z,7.67
2022-08-27T09:06:52.421Z,6.33
2022-08-27T09:09:50.607Z,8.00
2022-08-27T09:12:30.821Z,7.67
2022-08-27T09:15:11.428Z,7.33
2022-08-27T09:17:42.340Z,8.00
2022-08-27T09:20:14.379Z,6.00
2022-08-27T09:23:10.936Z,8.00
2022-08-27T09:25:43.693Z,8.00
2022-08-27T09:28:46.731Z,6.00
2022-08-27T09:31:20.775Z,8.00
2022-08-27T09:33:56.798Z,7.00
2022-08-27T09:36:25.953Z,6.33
2022-08-27T09:39:04.616Z,7.00
2022-08-27T09:41:48.981Z,6.67
2022-08-27T09:44:21.067Z,5.00
2022-08-27T09:46:58.808Z,6.00
2022-08-27T09:49:27.696Z,5.67
2022-08-27T09:51:57.464Z,5.00
2022-08-27T09:54:43.167Z,6.00
2022-08-27T09:57:15.515Z,5.00
2022-08-27T09:59:55.847Z,6.00
2022-08-27T10:02:27.486Z,5.00
2022-08-27T10:05:14.793Z,3.67
2022-08-27T10:08:03.758Z,5.00
2022-08-27T10:10:49.705Z,5.00
2022-08-27T10:13:36.667Z,4.00
2022-08-27T10:16:47.992Z,5.00
2022-08-27T10:19:44.943Z,6.00
2022-08-27T10:23:10.282Z,6.00
2022-08-27T10:26:00.553Z,6.00
2022-08-27T10:29:23.749Z,5.00
2022-08-27T10:32:40.089Z,6.67
2022-08-27T10:35:27.235Z,5.33
2022-08-27T10:38:51.051Z,5.00
2022-08-27T10:41:46.668Z,5.00
2022-08-27T10:45:04.573Z,5.00
2022-08-27T10:48:03.062Z,5.00
2022-08-27T10:50:55.172Z,4.67
2022-08-27T10:54:01.234Z,5.33
2022-08-27T10:57:22.785Z,6.00
2022-08-27T11:00:12.281Z,4.00
2022-08-27T11:03:04.742Z,5.67
2022-08-27T11:05:53.685Z,6.33
2022-08-27T11:08:52.616Z,5.00
2022-08-27T11:12:13.969Z,5.00
2022-08-27T11:15:34.336Z,6.00
2022-08-27T11:18:33.081Z,5.00
2022-08-27T11:21:14.879Z,6.33
2022-08-27T11:24:22.898Z,6.67
2022-08-27T11:27:05.211Z,5.00
2022-08-27T11:30:16.952Z,4.33
2022-08-27T11:33:46.604Z,5.67
2022-08-27T11:37:10.478Z,6.00
2022-08-27T11:40:22.868Z,5.67
2022-08-27T11:43:08.261Z,6.00
2022-08-27T11:46:04.205Z,4.67
2022-08-27T11:48:44.071Z,5.67
2022-08-27T11:51:35.159Z,3.00
2022-08-27T11:54:31.982Z,5.67
2022-08-27T11:57:00.547Z,6.00
2022-08-27T11:59:32.706Z,5.00
2022-08-27T12:02:29.693Z,7.00
2022-08-27T12:05:54.088Z,5.67
2022-08-27T12:08:22.488Z,5.00
2022-08-27T12:11:19.108Z,5.00
2022-08-27T12:14:14.926Z,8.00
2022-08-27T12:17:41.328Z,0.00
2022-08-27T12:21:22.446Z,6.00
2022-08-27T12:24:49.349Z,6.33
2022-08-27T12:27:38.421Z,5.33
2022-08-27T12:30:21.260Z,9.00
2022-08-27T12:32:52.651Z,5.00
2022-08-27T12:35:50.133Z,6.00
2022-08-27T12:38:21.090Z,5.33
2022-08-27T12:41:00.394Z,6.00
2022-08-27T12:43:35.477Z,5.67
2022-08-27T12:46:20.121Z,5.00
2022-08-27T12:49:35.906Z,5.00
2022-08-27T12:51:49.153Z,5.00
2022-08-27T12:55:19.784Z,6.00
2022-08-27T12:57:53.778Z,6.00
2022-08-27T13:00:26.267Z,5.33
2022-08-27T13:03:20.629Z,4.67
2022-08-27T13:05:56.852Z,6.33
2022-08-27T13:08:33.949Z,6.00
2022-08-27T13:11:31.198Z,6.00
2022-08-27T13:14:20.290Z,6.00
2022-08-27T13:17:07.960Z,6.00
2022-08-27T13:20:00.902Z,7.00
2022-08-27T13:22:40.719Z,6.67
2022-08-27T13:25:27.597Z,7.00
2022-08-27T13:28:11.714Z,5.67
2022-08-27T13:30:46.852Z,6.00
2022-08-27T13:33:28.638Z,5.67
2022-08-27T13:35:58.819Z,5.00
2022-08-27T13:38:36.191Z,5.00
2022-08-27T13:41:32.055Z,5.33
2022-08-27T13:44:35.186Z,6.00
2022-08-27T13:47:30.830Z,5.00
2022-08-27T13:50:14.468Z,6.33
2022-08-27T13:53:01.565Z,3.00
2022-08-27T13:55:33.614Z,6.00
2022-08-27T13:58:25.654Z,6.00
2022-08-27T14:00:56.153Z,7.00
2022-08-27T14:03:36.629Z,6.67
2022-08-27T14:06:05.759Z,6.67
2022-08-27T14:08:36.755Z,8.00
2022-08-27T14:11:10.377Z,5.67
2022-08-27T14:13:46.049Z,6.00
2022-08-27T14:16:28.976Z,8.00
2022-08-27T14:19:12.104Z,6.00
2022-08-27T14:21:43.710Z,6.33
2022-08-27T14:24:13.801Z,4.00
2022-08-27T14:26:42.316Z,7.67
2022-08-27T14:29:12.191Z,7.00
2022-08-27T14:31:41.919Z,6.00
2022-08-27T14:34:10.453Z,6.67
2022-08-27T14:36:41.365Z,6.33
2022-08-27T14:39:11.564Z,7.00
2022-08-27T14:41:40.666Z,6.00
2022-08-27T14:44:09.346Z,7.33
2022-08-27T14:46:41.605Z,6.00
2022-08-27T14:49:28.151Z,6.33
2022-08-27T14:51:56.673Z,5.00
2022-08-27T14:54:29.204Z,6.00
2022-08-27T14:57:04.273Z,5.00
2022-08-27T14:59:33.910Z,6.33
2022-08-27T15:02:08.669Z,6.00
2022-08-27T15:04:37.220Z,6.00
2022-08-27T15:07:07.066Z,7.00
2022-08-27T15:09:35.518Z,5.00
2022-08-27T15:12:04.555Z,7.00
2022-08-27T15:14:37.083Z,8.00
2022-08-27T15:17:12.292Z,5.00
2022-08-27T15:19:57.695Z,6.33
2022-08-27T15:22:33.996Z,5.33
2022-08-27T15:25:05.378Z,6.33
2022-08-27T15:27:38.594Z,6.33
2022-08-27T15:30:15.419Z,5.67
2022-08-27T15:32:48.314Z,6.00
2022-08-27T15:35:26.686Z,6.00
2022-08-27T15:37:58.417Z,6.00
2022-08-27T15:40:32.205Z,6.00
2022-08-27T15:43:05.837Z,5.67
2022-08-27T15:45:36.793Z,6.00
2022-08-27T15:48:06.070Z,7.00
2022-08-27T15:50:35.198Z,7.67
2022-08-27T15:53:07.794Z,3.33
2022-08-27T15:55:40.653Z,6.00
2022-08-27T15:58:11.016Z,6.00
2022-08-27T16:00:40.388Z,6.33
2022-08-27T16:03:13.288Z,6.00
2022-08-27T16:05:45.050Z,6.00
2022-08-27T16:08:15.097Z,8.00
2022-08-27T16:10:43.530Z,7.33
2022-08-27T16:13:12.020Z,6.67
2022-08-27T16:15:43.351Z,7.00
2022-08-27T16:18:12.523Z,8.00
2022-08-27T16:20:42.222Z,7.00
2022-08-27T16:23:10.707Z,6.00
2022-08-27T16:25:39.279Z,7.00
2022-08-27T16:28:16.630Z,7.33
2022-08-27T16:30:45.093Z,7.33
2022-08-27T16:33:14.512Z,7.00
2022-08-27T16:35:43.389Z,7.00
2022-08-27T16:38:13.008Z,5.67
2022-08-27T16:40:52.316Z,7.00
2022-08-27T16:43:26.598Z,6.33
2022-08-27T16:45:59.689Z,5.00
2022-08-27T16:48:48.356Z,7.67
2022-08-27T16:51:36.064Z,9.00
2022-08-27T16:54:07.521Z,6.33
2022-08-27T16:56:37.865Z,6.67
2022-08-27T16:59:08.016Z,7.33
2022-08-27T17:01:36.568Z,7.00
2022-08-27T17:04:16.135Z,8.00
2022-08-27T17:06:51.795Z,6.67
2022-08-27T17:09:20.597Z,9.50
2022-08-27T17:11:57.897Z,12.50
2022-08-27T17:14:27.022Z,8.33
2022-08-27T17:16:56.573Z,1.00
2022-08-27T17:19:26.311Z,8.67
2022-08-27T17:21:55.271Z,6.67
2022-08-27T17:24:24.087Z,8.00
2022-08-27T17:26:52.627Z,6.67
2022-08-27T17:29:21.201Z,8.00
2022-08-27T17:31:49.768Z,7.00
2022-08-27T17:34:25.085Z,7.00
2022-08-27T17:36:54.802Z,8.00
2022-08-27T17:39:23.935Z,8.00
2022-08-27T17:41:54.709Z,8.00
2022-08-27T17:44:32.634Z,9.00
2022-08-27T17:47:05.539Z,13.00
2022-08-27T17:49:34.928Z,9.33
2022-08-27T17:52:12.617Z,15.00
2022-08-27T17:54:54.234Z,18.25
2022-08-27T17:57:41.091Z,24.38
2022-08-27T18:00:15.012Z,19.00
2022-08-27T18:02:49.455Z,17.25
2022-08-27T18:05:24.712Z,13.00
2022-08-27T18:07:54.261Z,15.00
2022-08-27T18:10:26.329Z,17.33
2022-08-27T18:12:57.521Z,15.33
2022-08-27T18:15:32.282Z,18.67
2022-08-27T18:18:02.353Z,27.33
2022-08-27T18:20:34.458Z,19.00
2022-08-27T18:23:07.252Z,30.00
2022-08-27T18:25:39.893Z,22.50
2022-08-27T18:28:13.021Z,18.33
2022-08-27T18:30:44.688Z,17.75
2022-08-27T18:33:14.746Z,16.00
2022-08-27T18:35:43.795Z,17.00
2022-08-27T18:38:13.509Z,16.75
2022-08-27T18:40:48.893Z,17.00
2022-08-27T18:43:19.737Z,11.00
2022-08-27T18:45:48.941Z,11.00
2022-08-27T18:48:22.573Z,12.00
2022-08-27T18:50:58.795Z,14.00
2022-08-27T18:53:32.675Z,11.67
2022-08-27T18:56:02.659Z,9.00
2022-08-27T18:58:31.108Z,9.33
2022-08-27T19:01:04.679Z,11.00
2022-08-27T19:03:54.934Z,11.00
2022-08-27T19:06:23.947Z,8.67
2022-08-27T19:08:54.171Z,9.00
2022-08-27T19:11:22.823Z,9.00
2022-08-27T19:13:51.428Z,10.00
2022-08-27T19:16:44.672Z,9.50
2022-08-27T19:19:17.643Z,10.00
2022-08-27T19:21:51.174Z,11.00
2022-08-27T19:24:22.603Z,11.67
2022-08-27T19:26:53.046Z,11.33
2022-08-27T19:29:21.775Z,10.00
2022-08-27T19:31:50.413Z,10.00
2022-08-27T19:34:20.182Z,12.67
2022-08-27T19:36:49.066Z,11.50
2022-08-27T19:39:17.707Z,11.00
2022-08-27T19:41:46.368Z,11.33
2022-08-27T19:44:14.960Z,11.00
2022-08-27T19:46:43.659Z,11.00
2022-08-27T19:49:12.128Z,11.00
2022-08-27T19:51:40.656Z,11.00
2022-08-27T19:54:09.134Z,11.00
2022-08-27T19:56:38.206Z,13.00
2022-08-27T19:59:20.511Z,11.00
2022-08-27T20:01:52.837Z,14.00
2022-08-27T20:04:21.889Z,12.50
2022-08-27T20:06:50.611Z,12.67
2022-08-27T20:09:21.839Z,15.00
2022-08-27T20:11:50.701Z,12.50
2022-08-27T20:14:20.414Z,12.00
2022-08-27T20:16:49.251Z,12.00
2022-08-27T20:19:20.154Z,11.33
2022-08-27T20:21:49.199Z,12.00
2022-08-27T20:24:18.180Z,11.67
2022-08-27T20:26:47.498Z,11.67
2022-08-27T20:29:22.450Z,12.00
2022-08-27T20:32:02.320Z,11.50
2022-08-27T20:34:32.666Z,11.00
2022-08-27T20:37:05.525Z,9.00
2022-08-27T20:39:34.341Z,10.67
2022-08-27T20:42:03.134Z,12.00
2022-08-27T20:44:31.931Z,10.67
2022-08-27T20:47:02.612Z,10.33
2022-08-27T20:49:31.720Z,12.33
2022-08-27T20:52:03.572Z,12.33
2022-08-27T20:54:34.073Z,12.00
2022-08-27T20:57:04.414Z,12.50
2022-08-27T20:59:51.847Z,11.00
2022-08-27T21:02:29.542Z,11.00
2022-08-27T21:05:06.413Z,11.00
2022-08-27T21:07:35.070Z,9.50
2022-08-27T21:10:06.112Z,10.67
2022-08-27T21:12:35.133Z,12.33
2022-08-27T21:15:06.896Z,11.00
2022-08-27T21:17:36.037Z,11.00
2022-08-27T21:20:13.788Z,12.00
2022-08-27T21:22:44.526Z,12.00
2022-08-27T21:25:14.749Z,13.50
2022-08-27T21:27:43.790Z,13.00
2022-08-27T21:30:13.856Z,12.00
2022-08-27T21:32:42.566Z,13.00
2022-08-27T21:35:11.644Z,15.00
2022-08-27T21:37:41.987Z,14.00
2022-08-27T21:40:11.496Z,13.00
2022-08-27T21:42:40.323Z,12.50
2022-08-27T21:45:09.363Z,13.50
2022-08-27T21:47:39.102Z,12.50
2022-08-27T21:50:10.087Z,14.33
2022-08-27T21:52:39.464Z,11.50
2022-08-27T21:55:10.384Z,14.33
2022-08-27T21:57:39.169Z,9.00
2022-08-27T22:00:45.955Z,13.50
2022-08-27T22:03:19.241Z,12.00
2022-08-27T22:05:49.633Z,12.00
2022-08-27T22:08:21.729Z,12.00
2022-08-27T22:10:57.935Z,12.00
2022-08-27T22:13:26.951Z,13.00
2022-08-27T22:15:55.696Z,10.00
2022-08-27T22:18:25.024Z,12.50
2022-08-27T22:20:54.805Z,11.00
2022-08-27T22:23:23.449Z,13.00
2022-08-27T22:25:52.087Z,12.50
2022-08-27T22:28:20.826Z,12.00
2022-08-27T22:30:49.524Z,13.00
2022-08-27T22:33:19.075Z,15.00
2022-08-27T22:35:48.415Z,12.67
2022-08-27T22:38:17.861Z,11.67
2022-08-27T22:40:46.497Z,14.00
2022-08-27T22:43:16.424Z,14.00
2022-08-27T22:45:45.086Z,10.50
2022-08-27T22:48:14.190Z,11.00
2022-08-27T22:50:42.900Z,13.00
2022-08-27T22:53:12.223Z,15.00
2022-08-27T22:55:40.984Z,12.50
2022-08-27T22:58:09.665Z,13.00
2022-08-27T23:00:40.658Z,15.00
2022-08-27T23:03:11.716Z,13.67
2022-08-27T23:05:41.808Z,13.00
2022-08-27T23:08:14.100Z,13.00
2022-08-27T23:10:43.924Z,13.00
2022-08-27T23:13:13.382Z,14.00
2022-08-27T23:15:42.702Z,13.33
2022-08-27T23:18:12.576Z,15.33
2022-08-27T23:20:42.035Z,13.00
2022-08-27T23:23:10.811Z,13.00
2022-08-27T23:25:57.985Z,14.00
2022-08-27T23:28:26.760Z,14.50
2022-08-27T23:30:55.467Z,13.50
2022-08-27T23:33:24.194Z,14.00
2022-08-27T23:35:52.892Z,15.00
2022-08-27T23:38:22.840Z,15.00
2022-08-27T23:40:53.451Z,14.50
2022-08-27T23:43:22.402Z,12.50
2022-08-27T23:45:52.173Z,14.33
2022-08-27T23:48:21.432Z,12.50
2022-08-27T23:50:50.100Z,13.00
2022-08-27T23:53:18.916Z,13.00
2022-08-27T23:55:47.643Z,14.00
2022-08-27T23:58:16.264Z,13.00
